Kezdőlap
METAR-TAF:

METAR-TAF

Repülőterek :

Nakhon Ratchasima, Thaiföld

földrajzi szélesség: 14-56-58N, földrajzi hosszúság: 102-18-45E, magasság: 233 m

Jelenlegi meteorológiai megfigyelések

A jelentés 2 órával és 40 perccel ezelõtt készült, 14:00 UTC
Különbözõ irányokból fújó szél 1 kt
Hőmérséklet 29°C
Páratartalom 79%
Légköri nyomás 1008 hPa
Látótávolság 10 km, vagy több
Kevés felhő 3500 lábon
Szórványos felhőzet 8000 lábon

METAR: VTUQ 281400Z VRB01KT 9999 FEW035 SCT080 29/25 Q1008 NOSIG

Idő: 23:40 (16:40 UTC)

Előrejelzés

A jelentés 5 órával és 40 perccel ezelõtt készült, 11:00 UTC
Az előrejelzés 28-én 12 óra UTC és 29-én 12 óra UTC között érvényes
Nyugati szél 5 kt
Látótávolság: 8000 m
Szórványos felhőzet 3500 lábon

TAF: VTUQ 281100Z 2812/2912 26005KT 8000 SCT035

Meteorológiai megfigyelések és előrejelzések több, mint 4000 repülőtéren (METAR és TAF jelentéseket).

A térképen piros és sárga pontok jelzik az elérhető meteorológiai állomásokat.

Mozgassa az egeret a pont fölött, hogy megjelenjen az állomás neve.

Azután kattintson az időjárási megfigyelések és előrejelzések megtekintéséhez.

A térkép megváltoztatása: kattintson a fekete keresztel jelölt zöld gombra ráközelítéshez, a vonallal jelölt zöld gombra távolításhoz, vagy a zöld nyilakra a szomszédos térképek eléréséhez.


METAR-TAF: